sensor_id;sensor_type;location;lat;lon;timestamp;pressure;altitude;pressure_sealevel;temperature;humidity
25869;BME280;13688;53.154;18.136;2023-06-26T00:01:56;100973.58;;;16.76;97.82
25869;BME280;13688;53.154;18.136;2023-06-26T00:07:19;100967.06;;;16.59;99.26
25869;BME280;13688;53.154;18.136;2023-06-26T00:12:43;100972.71;;;16.48;100.00
25869;BME280;13688;53.154;18.136;2023-06-26T00:18:06;100961.80;;;16.30;100.00
25869;BME280;13688;53.154;18.136;2023-06-26T00:23:31;100960.45;;;16.17;100.00
25869;BME280;13688;53.154;18.136;2023-06-26T00:28:53;100963.36;;;16.06;100.00
25869;BME280;13688;53.154;18.136;2023-06-26T00:34:15;100961.23;;;15.99;100.00
25869;BME280;13688;53.154;18.136;2023-06-26T00:39:38;100961.56;;;15.87;100.00
25869;BME280;13688;53.154;18.136;2023-06-26T00:45:01;100955.84;;;15.90;100.00
25869;BME280;13688;53.154;18.136;2023-06-26T00:50:26;100963.55;;;15.94;100.00
25869;BME280;13688;53.154;18.136;2023-06-26T00:55:49;100943.44;;;15.87;100.00
25869;BME280;13688;53.154;18.136;2023-06-26T01:01:12;100951.02;;;15.84;100.00
25869;BME280;13688;53.154;18.136;2023-06-26T01:06:36;100947.91;;;15.69;100.00
25869;BME280;13688;53.154;18.136;2023-06-26T01:12:00;100947.52;;;15.64;100.00
25869;BME280;13688;53.154;18.136;2023-06-26T01:17:24;100947.63;;;15.62;100.00
25869;BME280;13688;53.154;18.136;2023-06-26T01:28:56;100944.52;;;15.48;100.00
25869;BME280;13688;53.154;18.136;2023-06-26T01:34:22;100937.10;;;15.40;100.00
25869;BME280;13688;53.154;18.136;2023-06-26T01:39:47;100929.44;;;15.26;100.00
25869;BME280;13688;53.154;18.136;2023-06-26T01:45:27;100936.72;;;15.15;100.00
25869;BME280;13688;53.154;18.136;2023-06-26T01:50:46;100920.33;;;14.98;100.00
25869;BME280;13688;53.154;18.136;2023-06-26T01:56:16;100928.70;;;14.75;100.00
25869;BME280;13688;53.154;18.136;2023-06-26T02:01:35;100921.84;;;14.52;100.00
25869;BME280;13688;53.154;18.136;2023-06-26T02:06:59;100917.36;;;14.31;100.00
25869;BME280;13688;53.154;18.136;2023-06-26T02:12:23;100917.19;;;14.23;100.00
25869;BME280;13688;53.154;18.136;2023-06-26T02:17:46;100922.67;;;14.02;100.00
25869;BME280;13688;53.154;18.136;2023-06-26T02:23:10;100915.67;;;13.90;100.00
25869;BME280;13688;53.154;18.136;2023-06-26T02:28:34;100919.23;;;13.70;100.00
25869;BME280;13688;53.154;18.136;2023-06-26T02:33:59;100911.08;;;13.60;100.00
25869;BME280;13688;53.154;18.136;2023-06-26T02:39:22;100916.71;;;13.48;100.00
25869;BME280;13688;53.154;18.136;2023-06-26T02:44:45;100911.86;;;13.41;100.00
25869;BME280;13688;53.154;18.136;2023-06-26T02:50:09;100917.27;;;13.41;100.00
25869;BME280;13688;53.154;18.136;2023-06-26T02:55:34;100917.64;;;13.37;100.00
25869;BME280;13688;53.154;18.136;2023-06-26T03:00:58;100922.52;;;13.43;100.00
25869;BME280;13688;53.154;18.136;2023-06-26T03:06:24;100914.80;;;13.38;100.00
25869;BME280;13688;53.154;18.136;2023-06-26T03:11:49;100922.60;;;13.32;100.00
25869;BME280;13688;53.154;18.136;2023-06-26T03:17:13;100921.27;;;13.26;100.00
25869;BME280;13688;53.154;18.136;2023-06-26T03:22:36;100924.83;;;13.27;100.00
25869;BME280;13688;53.154;18.136;2023-06-26T03:28:01;100920.14;;;13.29;100.00
25869;BME280;13688;53.154;18.136;2023-06-26T03:33:24;100917.78;;;13.35;100.00
25869;BME280;13688;53.154;18.136;2023-06-26T03:38:48;100906.12;;;13.35;100.00
25869;BME280;13688;53.154;18.136;2023-06-26T03:44:14;100914.14;;;13.46;100.00
25869;BME280;13688;53.154;18.136;2023-06-26T03:49:40;100921.27;;;13.78;100.00
25869;BME280;13688;53.154;18.136;2023-06-26T03:55:04;100923.35;;;13.95;100.00
25869;BME280;13688;53.154;18.136;2023-06-26T04:00:29;100917.63;;;14.19;100.00
25869;BME280;13688;53.154;18.136;2023-06-26T04:05:52;100918.44;;;14.50;100.00
25869;BME280;13688;53.154;18.136;2023-06-26T04:11:17;100909.64;;;14.77;100.00
25869;BME280;13688;53.154;18.136;2023-06-26T04:16:39;100909.19;;;15.20;100.00
25869;BME280;13688;53.154;18.136;2023-06-26T04:22:02;100912.84;;;15.48;100.00
25869;BME280;13688;53.154;18.136;2023-06-26T04:27:27;100901.25;;;15.75;100.00
25869;BME280;13688;53.154;18.136;2023-06-26T04:32:52;100912.83;;;16.05;100.00
25869;BME280;13688;53.154;18.136;2023-06-26T04:38:15;100903.69;;;16.33;100.00
25869;BME280;13688;53.154;18.136;2023-06-26T04:43:38;100905.27;;;16.53;100.00
25869;BME280;13688;53.154;18.136;2023-06-26T04:49:02;100902.77;;;16.70;100.00
25869;BME280;13688;53.154;18.136;2023-06-26T04:54:29;100900.95;;;16.96;100.00
25869;BME280;13688;53.154;18.136;2023-06-26T04:59:53;100903.41;;;17.25;100.00
25869;BME280;13688;53.154;18.136;2023-06-26T05:05:19;100907.27;;;17.40;100.00
25869;BME280;13688;53.154;18.136;2023-06-26T05:10:42;100910.63;;;17.60;100.00
25869;BME280;13688;53.154;18.136;2023-06-26T05:16:09;100908.73;;;17.79;100.00
25869;BME280;13688;53.154;18.136;2023-06-26T05:21:34;100912.07;;;17.98;100.00
25869;BME280;13688;53.154;18.136;2023-06-26T05:27:00;100908.25;;;18.17;100.00
25869;BME280;13688;53.154;18.136;2023-06-26T05:32:25;100911.17;;;18.24;100.00
25869;BME280;13688;53.154;18.136;2023-06-26T05:37:48;100905.02;;;18.22;100.00
25869;BME280;13688;53.154;18.136;2023-06-26T05:43:13;100899.74;;;18.20;100.00
25869;BME280;13688;53.154;18.136;2023-06-26T05:48:38;100896.27;;;18.44;100.00
25869;BME280;13688;53.154;18.136;2023-06-26T05:54:00;100896.80;;;18.56;100.00
25869;BME280;13688;53.154;18.136;2023-06-26T05:59:25;100898.58;;;18.73;100.00
25869;BME280;13688;53.154;18.136;2023-06-26T06:04:51;100886.82;;;18.89;100.00
25869;BME280;13688;53.154;18.136;2023-06-26T06:10:16;100890.73;;;19.19;100.00
25869;BME280;13688;53.154;18.136;2023-06-26T06:15:40;100883.41;;;19.36;96.64
25869;BME280;13688;53.154;18.136;2023-06-26T06:21:06;100884.42;;;19.51;95.50
25869;BME280;13688;53.154;18.136;2023-06-26T06:26:31;100879.13;;;19.58;93.00
25869;BME280;13688;53.154;18.136;2023-06-26T06:31:55;100873.28;;;19.77;90.52
25869;BME280;13688;53.154;18.136;2023-06-26T06:37:20;100881.37;;;20.10;88.54
25869;BME280;13688;53.154;18.136;2023-06-26T06:42:44;100874.70;;;20.12;85.73
25869;BME280;13688;53.154;18.136;2023-06-26T06:48:10;100873.45;;;20.23;87.32
25869;BME280;13688;53.154;18.136;2023-06-26T06:53:35;100877.56;;;20.58;86.67
25869;BME280;13688;53.154;18.136;2023-06-26T06:58:59;100871.57;;;20.85;85.10
25869;BME280;13688;53.154;18.136;2023-06-26T07:04:24;100869.44;;;20.96;81.20
25869;BME280;13688;53.154;18.136;2023-06-26T07:09:48;100865.09;;;21.24;79.91
25869;BME280;13688;53.154;18.136;2023-06-26T07:15:12;100873.15;;;21.40;76.50
25869;BME280;13688;53.154;18.136;2023-06-26T07:20:37;100865.52;;;21.51;71.61
25869;BME280;13688;53.154;18.136;2023-06-26T07:26:02;100867.24;;;21.66;69.33
25869;BME280;13688;53.154;18.136;2023-06-26T07:31:30;100876.95;;;21.98;70.43
25869;BME280;13688;53.154;18.136;2023-06-26T07:36:56;100862.64;;;22.11;68.71
25869;BME280;13688;53.154;18.136;2023-06-26T07:42:20;100869.56;;;22.43;68.60
25869;BME280;13688;53.154;18.136;2023-06-26T07:47:45;100867.75;;;22.50;67.03
25869;BME280;13688;53.154;18.136;2023-06-26T07:53:09;100861.84;;;22.68;66.37
25869;BME280;13688;53.154;18.136;2023-06-26T07:58:31;100856.16;;;22.70;66.00
25869;BME280;13688;53.154;18.136;2023-06-26T08:03:54;100848.88;;;22.98;65.09
25869;BME280;13688;53.154;18.136;2023-06-26T08:09:18;100852.66;;;22.97;63.65
25869;BME280;13688;53.154;18.136;2023-06-26T08:14:45;100850.83;;;23.32;62.29
25869;BME280;13688;53.154;18.136;2023-06-26T08:20:09;100835.27;;;23.39;61.87
25869;BME280;13688;53.154;18.136;2023-06-26T08:25:36;100832.86;;;23.58;61.18
25869;BME280;13688;53.154;18.136;2023-06-26T08:30:59;100835.13;;;23.82;57.20
25869;BME280;13688;53.154;18.136;2023-06-26T08:36:22;100831.96;;;24.26;56.40
25869;BME280;13688;53.154;18.136;2023-06-26T08:41:46;100823.47;;;23.74;53.91
25869;BME280;13688;53.154;18.136;2023-06-26T08:47:10;100828.05;;;24.01;53.72
25869;BME280;13688;53.154;18.136;2023-06-26T08:52:40;100824.05;;;24.51;50.74
25869;BME280;13688;53.154;18.136;2023-06-26T08:58:10;100813.33;;;24.22;49.53
25869;BME280;13688;53.154;18.136;2023-06-26T09:03:35;100814.13;;;24.64;49.21
25869;BME280;13688;53.154;18.136;2023-06-26T09:09:01;100809.50;;;24.91;45.42
25869;BME280;13688;53.154;18.136;2023-06-26T09:14:24;100810.11;;;24.99;46.29
25869;BME280;13688;53.154;18.136;2023-06-26T09:19:49;100803.37;;;25.08;44.38
25869;BME280;13688;53.154;18.136;2023-06-26T09:25:12;100803.33;;;24.69;44.49
25869;BME280;13688;53.154;18.136;2023-06-26T09:30:35;100796.59;;;24.91;45.83
25869;BME280;13688;53.154;18.136;2023-06-26T09:35:58;100800.38;;;25.50;44.41
25869;BME280;13688;53.154;18.136;2023-06-26T09:41:23;100793.48;;;25.92;44.03
25869;BME280;13688;53.154;18.136;2023-06-26T09:46:46;100779.86;;;26.04;43.39
25869;BME280;13688;53.154;18.136;2023-06-26T09:52:09;100779.73;;;26.30;41.84
25869;BME280;13688;53.154;18.136;2023-06-26T09:57:34;100771.64;;;26.73;39.54
25869;BME280;13688;53.154;18.136;2023-06-26T10:02:57;100769.55;;;27.19;37.98
25869;BME280;13688;53.154;18.136;2023-06-26T10:08:21;100766.45;;;27.33;39.98
25869;BME280;13688;53.154;18.136;2023-06-26T10:13:46;100755.66;;;28.17;36.52
25869;BME280;13688;53.154;18.136;2023-06-26T10:19:13;100756.72;;;28.34;31.81
25869;BME280;13688;53.154;18.136;2023-06-26T10:24:39;100751.46;;;28.44;29.69
25869;BME280;13688;53.154;18.136;2023-06-26T10:30:06;100754.66;;;28.71;30.72
25869;BME280;13688;53.154;18.136;2023-06-26T10:35:31;100750.75;;;29.02;29.23
25869;BME280;13688;53.154;18.136;2023-06-26T10:41:05;100738.19;;;29.70;28.59
25869;BME280;13688;53.154;18.136;2023-06-26T10:46:29;100729.40;;;29.73;26.18
25869;BME280;13688;53.154;18.136;2023-06-26T10:52:10;100726.45;;;29.16;26.66
25869;BME280;13688;53.154;18.136;2023-06-26T10:57:33;100726.88;;;29.60;27.90
25869;BME280;13688;53.154;18.136;2023-06-26T11:02:59;100707.86;;;29.52;28.08
25869;BME280;13688;53.154;18.136;2023-06-26T11:08:23;100711.81;;;29.68;28.30
25869;BME280;13688;53.154;18.136;2023-06-26T11:14:02;100704.23;;;29.91;27.77
25869;BME280;13688;53.154;18.136;2023-06-26T11:19:26;100700.30;;;30.78;27.45
25869;BME280;13688;53.154;18.136;2023-06-26T11:24:51;100705.42;;;29.67;28.37
25869;BME280;13688;53.154;18.136;2023-06-26T11:30:23;100681.44;;;29.73;27.68
25869;BME280;13688;53.154;18.136;2023-06-26T11:35:47;100675.79;;;30.25;28.71
25869;BME280;13688;53.154;18.136;2023-06-26T11:41:10;100677.97;;;29.94;27.91
25869;BME280;13688;53.154;18.136;2023-06-26T11:46:34;100676.78;;;30.18;27.19
25869;BME280;13688;53.154;18.136;2023-06-26T11:51:58;100668.58;;;31.73;26.73
25869;BME280;13688;53.154;18.136;2023-06-26T11:57:21;100662.38;;;30.67;26.91
25869;BME280;13688;53.154;18.136;2023-06-26T12:02:44;100660.11;;;30.02;28.27
25869;BME280;13688;53.154;18.136;2023-06-26T12:08:09;100658.16;;;29.22;30.84
25869;BME280;13688;53.154;18.136;2023-06-26T12:13:31;100647.19;;;28.33;32.11
25869;BME280;13688;53.154;18.136;2023-06-26T12:18:59;100635.70;;;27.76;31.77
25869;BME280;13688;53.154;18.136;2023-06-26T12:24:25;100635.94;;;27.56;34.24
25869;BME280;13688;53.154;18.136;2023-06-26T12:29:51;100637.88;;;27.37;33.80
25869;BME280;13688;53.154;18.136;2023-06-26T12:35:15;100635.91;;;27.08;33.85
25869;BME280;13688;53.154;18.136;2023-06-26T12:40:44;100632.95;;;26.85;33.34
25869;BME280;13688;53.154;18.136;2023-06-26T12:46:02;100624.86;;;27.26;31.51
25869;BME280;13688;53.154;18.136;2023-06-26T12:51:24;100618.95;;;27.41;32.10
25869;BME280;13688;53.154;18.136;2023-06-26T12:56:47;100613.17;;;26.88;33.61
25869;BME280;13688;53.154;18.136;2023-06-26T13:02:10;100596.78;;;26.74;34.50
25869;BME280;13688;53.154;18.136;2023-06-26T13:07:33;100598.47;;;26.94;34.49
25869;BME280;13688;53.154;18.136;2023-06-26T13:12:56;100595.45;;;28.22;33.78
25869;BME280;13688;53.154;18.136;2023-06-26T13:18:19;100585.61;;;30.94;28.12
25869;BME280;13688;53.154;18.136;2023-06-26T13:23:41;100575.59;;;31.15;27.28
25869;BME280;13688;53.154;18.136;2023-06-26T13:29:05;100563.38;;;27.79;31.50
25869;BME280;13688;53.154;18.136;2023-06-26T13:34:29;100561.12;;;27.58;33.20
25869;BME280;13688;53.154;18.136;2023-06-26T13:39:51;100557.99;;;28.38;32.23
25869;BME280;13688;53.154;18.136;2023-06-26T13:45:18;100543.33;;;30.15;28.28
25869;BME280;13688;53.154;18.136;2023-06-26T13:50:41;100531.49;;;28.89;30.92
25869;BME280;13688;53.154;18.136;2023-06-26T13:56:04;100525.83;;;28.02;30.95
25869;BME280;13688;53.154;18.136;2023-06-26T14:01:27;100521.67;;;27.69;31.80
25869;BME280;13688;53.154;18.136;2023-06-26T14:06:52;100511.28;;;27.94;31.09
25869;BME280;13688;53.154;18.136;2023-06-26T14:12:15;100505.63;;;27.18;32.52
25869;BME280;13688;53.154;18.136;2023-06-26T14:17:37;100500.82;;;26.95;33.32
25869;BME280;13688;53.154;18.136;2023-06-26T14:23:01;100482.11;;;26.97;33.79
25869;BME280;13688;53.154;18.136;2023-06-26T14:28:24;100476.53;;;27.33;33.04
25869;BME280;13688;53.154;18.136;2023-06-26T14:33:47;100468.52;;;27.44;34.52
25869;BME280;13688;53.154;18.136;2023-06-26T14:39:10;100458.80;;;27.41;33.41
25869;BME280;13688;53.154;18.136;2023-06-26T14:44:33;100451.20;;;28.13;33.11
25869;BME280;13688;53.154;18.136;2023-06-26T14:49:58;100451.48;;;29.78;29.06
25869;BME280;13688;53.154;18.136;2023-06-26T14:55:21;100441.28;;;31.53;27.14
25869;BME280;13688;53.154;18.136;2023-06-26T15:00:43;100438.80;;;32.26;25.92
25869;BME280;13688;53.154;18.136;2023-06-26T15:06:07;100436.11;;;33.04;22.89
25869;BME280;13688;53.154;18.136;2023-06-26T15:11:30;100425.89;;;33.40;24.14
25869;BME280;13688;53.154;18.136;2023-06-26T15:16:53;100422.89;;;32.22;24.19
25869;BME280;13688;53.154;18.136;2023-06-26T15:22:22;100414.72;;;32.47;24.85
25869;BME280;13688;53.154;18.136;2023-06-26T15:27:39;100409.29;;;32.83;24.17
25869;BME280;13688;53.154;18.136;2023-06-26T15:33:02;100408.55;;;33.13;23.67
25869;BME280;13688;53.154;18.136;2023-06-26T15:38:25;100403.58;;;33.45;22.73
25869;BME280;13688;53.154;18.136;2023-06-26T15:43:49;100389.09;;;33.53;22.52
25869;BME280;13688;53.154;18.136;2023-06-26T15:49:12;100399.13;;;33.44;22.87
25869;BME280;13688;53.154;18.136;2023-06-26T15:54:34;100387.66;;;33.25;18.31
25869;BME280;13688;53.154;18.136;2023-06-26T15:59:58;100378.77;;;33.39;18.05
25869;BME280;13688;53.154;18.136;2023-06-26T16:05:22;100366.18;;;32.28;18.85
25869;BME280;13688;53.154;18.136;2023-06-26T16:10:46;100360.17;;;31.56;19.14
25869;BME280;13688;53.154;18.136;2023-06-26T16:16:09;100347.61;;;31.86;18.60
25869;BME280;13688;53.154;18.136;2023-06-26T16:21:32;100356.56;;;30.26;19.78
25869;BME280;13688;53.154;18.136;2023-06-26T16:26:55;100360.88;;;29.61;20.93
25869;BME280;13688;53.154;18.136;2023-06-26T16:32:17;100357.34;;;29.83;20.62
25869;BME280;13688;53.154;18.136;2023-06-26T16:37:40;100352.73;;;30.10;21.71
25869;BME280;13688;53.154;18.136;2023-06-26T16:43:03;100352.03;;;30.20;21.64
25869;BME280;13688;53.154;18.136;2023-06-26T16:48:27;100346.30;;;30.70;20.58
25869;BME280;13688;53.154;18.136;2023-06-26T16:53:49;100336.52;;;30.90;20.62
25869;BME280;13688;53.154;18.136;2023-06-26T16:59:12;100340.62;;;30.16;21.51
25869;BME280;13688;53.154;18.136;2023-06-26T17:04:34;100336.84;;;29.33;24.12
25869;BME280;13688;53.154;18.136;2023-06-26T17:09:57;100341.87;;;28.74;28.23
25869;BME280;13688;53.154;18.136;2023-06-26T17:15:20;100341.73;;;27.89;27.16
25869;BME280;13688;53.154;18.136;2023-06-26T17:20:43;100336.30;;;27.12;29.53
25869;BME280;13688;53.154;18.136;2023-06-26T17:26:05;100337.42;;;26.93;30.28
25869;BME280;13688;53.154;18.136;2023-06-26T17:31:29;100338.13;;;26.58;31.15
25869;BME280;13688;53.154;18.136;2023-06-26T17:36:51;100333.50;;;26.70;31.47
25869;BME280;13688;53.154;18.136;2023-06-26T17:42:14;100319.47;;;26.42;32.89
25869;BME280;13688;53.154;18.136;2023-06-26T17:47:37;100313.75;;;26.25;32.32
25869;BME280;13688;53.154;18.136;2023-06-26T17:52:59;100320.55;;;26.22;34.08
25869;BME280;13688;53.154;18.136;2023-06-26T17:58:22;100313.12;;;26.05;34.78
25869;BME280;13688;53.154;18.136;2023-06-26T18:03:45;100313.64;;;25.58;36.90
25869;BME280;13688;53.154;18.136;2023-06-26T18:09:08;100310.56;;;25.48;37.53
25869;BME280;13688;53.154;18.136;2023-06-26T18:14:31;100305.48;;;24.95;38.56
25869;BME280;13688;53.154;18.136;2023-06-26T18:19:53;100301.92;;;24.88;39.14
25869;BME280;13688;53.154;18.136;2023-06-26T18:25:16;100309.18;;;24.82;40.94
25869;BME280;13688;53.154;18.136;2023-06-26T18:30:38;100293.17;;;24.73;42.97
25869;BME280;13688;53.154;18.136;2023-06-26T18:36:02;100289.00;;;24.64;42.69
25869;BME280;13688;53.154;18.136;2023-06-26T18:41:28;100281.36;;;24.34;44.69
25869;BME280;13688;53.154;18.136;2023-06-26T18:46:50;100278.18;;;23.79;44.74
25869;BME280;13688;53.154;18.136;2023-06-26T18:52:12;100275.28;;;23.61;46.13
25869;BME280;13688;53.154;18.136;2023-06-26T18:57:35;100274.23;;;23.49;49.64
25869;BME280;13688;53.154;18.136;2023-06-26T19:02:58;100271.08;;;23.38;48.67
25869;BME280;13688;53.154;18.136;2023-06-26T19:08:20;100265.16;;;23.41;50.58
25869;BME280;13688;53.154;18.136;2023-06-26T19:13:43;100259.27;;;23.25;50.60
25869;BME280;13688;53.154;18.136;2023-06-26T19:19:06;100266.48;;;22.99;50.59
25869;BME280;13688;53.154;18.136;2023-06-26T19:24:28;100256.56;;;22.92;50.71
25869;BME280;13688;53.154;18.136;2023-06-26T19:29:51;100263.94;;;22.84;52.52
25869;BME280;13688;53.154;18.136;2023-06-26T19:35:13;100262.83;;;22.66;54.76
25869;BME280;13688;53.154;18.136;2023-06-26T19:40:37;100250.78;;;22.47;52.95
25869;BME280;13688;53.154;18.136;2023-06-26T19:46:00;100242.99;;;22.44;53.08
25869;BME280;13688;53.154;18.136;2023-06-26T19:51:22;100250.56;;;22.35;51.19
25869;BME280;13688;53.154;18.136;2023-06-26T19:56:45;100250.78;;;22.47;52.92
25869;BME280;13688;53.154;18.136;2023-06-26T20:02:07;100259.64;;;22.42;52.41
25869;BME280;13688;53.154;18.136;2023-06-26T20:07:30;100286.53;;;22.12;57.66
25869;BME280;13688;53.154;18.136;2023-06-26T20:12:54;100365.42;;;21.39;74.08
25869;BME280;13688;53.154;18.136;2023-06-26T20:18:18;100325.36;;;19.51;100.00
25869;BME280;13688;53.154;18.136;2023-06-26T20:23:40;100347.95;;;18.53;100.00
25869;BME280;13688;53.154;18.136;2023-06-26T20:29:04;100388.55;;;18.32;100.00
25869;BME280;13688;53.154;18.136;2023-06-26T20:34:26;100395.11;;;18.15;100.00
25869;BME280;13688;53.154;18.136;2023-06-26T20:39:49;100434.38;;;18.12;100.00
25869;BME280;13688;53.154;18.136;2023-06-26T20:45:13;100450.91;;;18.02;100.00
25869;BME280;13688;53.154;18.136;2023-06-26T20:50:36;100462.14;;;17.99;100.00
25869;BME280;13688;53.154;18.136;2023-06-26T20:55:59;100446.19;;;17.88;100.00
25869;BME280;13688;53.154;18.136;2023-06-26T21:01:22;100453.02;;;17.76;100.00
25869;BME280;13688;53.154;18.136;2023-06-26T21:06:45;100461.68;;;17.71;100.00
25869;BME280;13688;53.154;18.136;2023-06-26T21:12:09;100439.72;;;17.65;100.00
25869;BME280;13688;53.154;18.136;2023-06-26T21:17:33;100449.11;;;17.70;100.00
25869;BME280;13688;53.154;18.136;2023-06-26T21:22:56;100437.87;;;17.82;100.00
25869;BME280;13688;53.154;18.136;2023-06-26T21:28:18;100429.87;;;17.88;100.00
25869;BME280;13688;53.154;18.136;2023-06-26T21:33:41;100433.25;;;17.98;100.00
25869;BME280;13688;53.154;18.136;2023-06-26T21:39:03;100425.59;;;17.94;100.00
25869;BME280;13688;53.154;18.136;2023-06-26T21:44:25;100415.41;;;17.96;100.00
25869;BME280;13688;53.154;18.136;2023-06-26T21:49:48;100412.33;;;17.99;100.00
25869;BME280;13688;53.154;18.136;2023-06-26T21:55:11;100397.01;;;18.06;100.00
25869;BME280;13688;53.154;18.136;2023-06-26T22:00:35;100408.94;;;17.97;100.00
25869;BME280;13688;53.154;18.136;2023-06-26T22:05:58;100398.19;;;18.03;100.00
25869;BME280;13688;53.154;18.136;2023-06-26T22:11:20;100382.41;;;17.99;100.00
25869;BME280;13688;53.154;18.136;2023-06-26T22:16:43;100371.36;;;17.92;100.00
25869;BME280;13688;53.154;18.136;2023-06-26T22:22:05;100371.89;;;17.96;100.00
25869;BME280;13688;53.154;18.136;2023-06-26T22:27:28;100372.73;;;17.96;100.00
25869;BME280;13688;53.154;18.136;2023-06-26T22:32:51;100354.05;;;17.85;100.00
25869;BME280;13688;53.154;18.136;2023-06-26T22:38:15;100337.39;;;17.88;100.00
25869;BME280;13688;53.154;18.136;2023-06-26T22:43:37;100330.44;;;17.86;100.00
25869;BME280;13688;53.154;18.136;2023-06-26T22:48:59;100332.13;;;17.87;100.00
25869;BME280;13688;53.154;18.136;2023-06-26T22:54:22;100344.19;;;17.84;100.00
25869;BME280;13688;53.154;18.136;2023-06-26T22:59:45;100340.83;;;17.74;100.00
25869;BME280;13688;53.154;18.136;2023-06-26T23:05:08;100331.34;;;17.70;100.00
25869;BME280;13688;53.154;18.136;2023-06-26T23:10:30;100328.44;;;17.71;100.00
25869;BME280;13688;53.154;18.136;2023-06-26T23:15:53;100325.05;;;17.69;100.00
25869;BME280;13688;53.154;18.136;2023-06-26T23:21:15;100316.52;;;17.64;100.00
25869;BME280;13688;53.154;18.136;2023-06-26T23:26:38;100325.20;;;17.68;100.00
25869;BME280;13688;53.154;18.136;2023-06-26T23:32:00;100322.98;;;17.63;100.00
25869;BME280;13688;53.154;18.136;2023-06-26T23:37:25;100319.42;;;17.63;100.00
25869;BME280;13688;53.154;18.136;2023-06-26T23:42:47;100331.02;;;17.57;100.00
25869;BME280;13688;53.154;18.136;2023-06-26T23:48:11;100308.55;;;17.63;100.00
25869;BME280;13688;53.154;18.136;2023-06-26T23:53:34;100312.40;;;17.85;100.00
25869;BME280;13688;53.154;18.136;2023-06-26T23:58:57;100313.22;;;17.93;100.00
